X  Close Metar Aviation Weather Data     EHKD De Kooy Airport
Temperature
54°F Temperature
50°F Dewpoint
88% Humidity



Wind
12 MPH
19 KM/H
5 M/S
10 KTS



180°
S
Current Conditions

Partly Cloudy Partly Cloudy
Pressure 1002.03 (hPa) - 29.59 (inHg)
Visibility 6 (mile) - 9.7 (km)
Airport
Airport-code EHKD

Location: De Kooy Airport
Distance: 34 (mi)

Metar:
EHKD 160255Z AUTO 18010KT 9999 FEW015CB SCT021 BKN050 12/10 Q1002 WHT RMK TS INFO NOT AVBL

Time: 16-06-2024 04:55 CEST